createdAt,value
2017-12-02T00:02:13.007Z,111.68
2017-12-02T00:04:41.491Z,121.13
2017-12-02T00:07:09.138Z,70.22
2017-12-02T00:09:37.733Z,93.07
2017-12-02T00:12:05.409Z,82.28
2017-12-02T00:14:33.902Z,74.32
2017-12-02T00:17:02.308Z,95.32
2017-12-02T00:19:29.931Z,98.07
2017-12-02T00:21:57.693Z,66.28
2017-12-02T00:24:25.290Z,73.82
2017-12-02T00:26:53.656Z,74.05
2017-12-02T00:29:22.099Z,174.18
2017-12-02T00:31:50.602Z,85.35
2017-12-02T00:34:19.049Z,161.95
2017-12-02T00:36:46.708Z,65.15
2017-12-02T00:39:15.000Z,85.12
2017-12-02T00:41:43.584Z,88.20
2017-12-02T00:44:11.254Z,63.58
2017-12-02T00:46:38.891Z,54.80
2017-12-02T00:49:06.541Z,72.47
2017-12-02T00:51:34.184Z,55.63
2017-12-02T00:54:01.871Z,65.20
2017-12-02T00:56:29.523Z,61.85
2017-12-02T00:58:57.144Z,90.78
2017-12-02T01:01:25.535Z,58.55
2017-12-02T01:03:53.213Z,80.18
2017-12-02T01:06:20.822Z,60.80
2017-12-02T01:08:49.263Z,53.50
2017-12-02T01:11:16.909Z,62.70
2017-12-02T01:13:44.595Z,71.37
2017-12-02T01:16:12.252Z,107.15
2017-12-02T01:18:40.955Z,78.62
2017-12-02T01:21:08.611Z,99.20
2017-12-02T01:23:36.252Z,56.97
2017-12-02T01:26:03.941Z,53.13
2017-12-02T01:28:33.095Z,45.65
2017-12-02T01:33:35.504Z,67.72
2017-12-02T01:36:03.151Z,52.70
2017-12-02T01:38:30.788Z,55.92
2017-12-02T01:40:58.479Z,94.93
2017-12-02T01:43:26.128Z,56.50
2017-12-02T01:45:54.485Z,67.43
2017-12-02T01:48:22.100Z,55.97
2017-12-02T01:50:49.737Z,56.05
2017-12-02T01:53:17.334Z,54.55
2017-12-02T01:55:44.938Z,53.13
2017-12-02T01:58:13.428Z,51.45
2017-12-02T02:00:41.841Z,49.60
2017-12-02T02:03:09.542Z,62.42
2017-12-02T02:05:37.244Z,50.12
2017-12-02T02:08:04.866Z,44.35
2017-12-02T02:10:32.517Z,52.00
2017-12-02T02:13:00.181Z,63.55
2017-12-02T02:15:27.854Z,52.90
2017-12-02T02:17:55.504Z,36.92
2017-12-02T02:20:23.312Z,77.78
2017-12-02T02:22:51.659Z,88.15
2017-12-02T02:25:19.325Z,55.97
2017-12-02T02:27:46.972Z,45.80
2017-12-02T02:30:14.640Z,48.22
2017-12-02T02:32:42.305Z,39.28
2017-12-02T02:35:10.760Z,57.08
2017-12-02T02:37:38.357Z,50.10
2017-12-02T02:40:06.035Z,65.53
2017-12-02T02:42:34.476Z,64.90
2017-12-02T02:45:02.064Z,66.80
2017-12-02T02:47:30.514Z,136.85
2017-12-02T02:49:58.180Z,108.03
2017-12-02T02:52:25.808Z,67.70
2017-12-02T02:54:53.433Z,44.60
2017-12-02T02:57:21.084Z,51.08
2017-12-02T02:59:48.697Z,35.67
2017-12-02T03:02:16.315Z,70.62
2017-12-02T03:04:44.737Z,73.25
2017-12-02T03:07:12.333Z,98.43
2017-12-02T03:09:40.120Z,91.05
2017-12-02T03:12:07.820Z,53.33
2017-12-02T03:14:35.499Z,41.25
2017-12-02T03:17:03.192Z,100.47
2017-12-02T03:19:30.851Z,46.78
2017-12-02T03:21:58.521Z,81.72
2017-12-02T03:24:26.183Z,60.03
2017-12-02T03:26:53.956Z,59.92
2017-12-02T03:29:21.583Z,63.03
2017-12-02T03:31:49.247Z,57.85
2017-12-02T03:34:16.840Z,60.25
2017-12-02T03:36:44.559Z,62.40
2017-12-02T03:39:12.237Z,62.15
2017-12-02T03:41:39.898Z,62.97
2017-12-02T03:44:07.553Z,76.82
2017-12-02T03:46:35.218Z,86.68
2017-12-02T03:49:02.852Z,56.05
2017-12-02T03:51:30.472Z,69.37
2017-12-02T03:53:58.166Z,74.47
2017-12-02T03:56:25.833Z,46.15
2017-12-02T03:58:53.514Z,57.75
2017-12-02T04:01:21.265Z,86.37
2017-12-02T04:03:48.909Z,52.72
2017-12-02T04:06:17.352Z,35.75
2017-12-02T04:08:45.031Z,60.63
2017-12-02T04:11:13.470Z,68.68
2017-12-02T04:13:41.185Z,60.58
2017-12-02T04:16:09.607Z,68.53
2017-12-02T04:18:37.282Z,58.97
2017-12-02T04:21:04.989Z,73.72
2017-12-02T04:23:33.538Z,45.15
2017-12-02T04:26:01.196Z,75.10
2017-12-02T04:28:28.861Z,123.60
2017-12-02T04:30:56.552Z,66.72
2017-12-02T04:33:24.992Z,57.85
2017-12-02T04:35:53.456Z,57.38
2017-12-02T04:38:21.107Z,65.90
2017-12-02T04:40:48.761Z,50.00
2017-12-02T04:43:16.381Z,58.38
2017-12-02T04:45:44.024Z,70.55
2017-12-02T04:48:11.682Z,76.12
2017-12-02T04:50:39.295Z,67.35
2017-12-02T04:53:07.752Z,74.12
2017-12-02T04:55:35.492Z,73.68
2017-12-02T04:58:03.146Z,83.47
2017-12-02T05:00:30.893Z,64.00
2017-12-02T05:02:58.572Z,59.30
2017-12-02T05:05:26.210Z,71.03
2017-12-02T05:07:53.880Z,71.60
2017-12-02T05:10:21.570Z,102.60
2017-12-02T05:12:49.220Z,71.28
2017-12-02T05:15:16.888Z,95.20
2017-12-02T05:17:44.551Z,96.72
2017-12-02T05:20:12.615Z,98.05
2017-12-02T05:22:40.362Z,88.90
2017-12-02T05:25:08.014Z,90.57
2017-12-02T05:27:35.691Z,86.85
2017-12-02T05:30:03.366Z,78.37
2017-12-02T05:32:31.005Z,113.88
2017-12-02T05:34:58.693Z,74.57
2017-12-02T05:37:26.360Z,65.32
2017-12-02T05:39:54.018Z,53.35
2017-12-02T05:42:21.660Z,46.70
2017-12-02T05:44:49.293Z,64.75
2017-12-02T05:47:17.705Z,52.30
2017-12-02T05:49:45.293Z,55.78
2017-12-02T05:52:12.977Z,50.17
2017-12-02T05:54:40.620Z,62.92
2017-12-02T05:57:09.019Z,69.85
2017-12-02T05:59:36.757Z,46.50
2017-12-02T06:02:04.443Z,52.92
2017-12-02T06:04:32.081Z,62.53
2017-12-02T06:06:59.811Z,58.45
2017-12-02T06:09:27.454Z,63.17
2017-12-02T06:11:55.075Z,56.90
2017-12-02T06:14:22.716Z,53.58
2017-12-02T06:16:51.404Z,46.53
2017-12-02T06:19:19.068Z,48.45
2017-12-02T06:21:46.761Z,42.22
2017-12-02T06:24:14.458Z,43.17
2017-12-02T06:26:42.076Z,61.22
2017-12-02T06:29:09.759Z,52.47
2017-12-02T06:31:38.178Z,36.42
2017-12-02T06:34:06.616Z,49.95
2017-12-02T06:36:35.628Z,52.38
2017-12-02T06:39:04.153Z,46.65
2017-12-02T06:41:33.006Z,52.70
2017-12-02T06:44:00.902Z,38.75
2017-12-02T06:46:28.702Z,43.38
2017-12-02T06:48:56.353Z,35.47
2017-12-02T06:51:24.043Z,30.35
2017-12-02T06:53:52.392Z,43.35
2017-12-02T06:56:20.109Z,42.72
2017-12-02T06:58:47.881Z,53.28
2017-12-02T07:01:15.549Z,47.85
2017-12-02T07:03:43.195Z,41.90
2017-12-02T07:06:10.858Z,49.65
2017-12-02T07:08:39.458Z,42.70
2017-12-02T07:11:07.122Z,53.30
2017-12-02T07:13:34.862Z,48.87
2017-12-02T07:16:02.623Z,50.20
2017-12-02T07:18:30.359Z,52.28
2017-12-02T07:20:58.021Z,60.38
2017-12-02T07:23:25.722Z,50.08
2017-12-02T07:25:53.467Z,47.45
2017-12-02T07:28:21.920Z,56.13
2017-12-02T07:30:50.384Z,61.67
2017-12-02T07:33:17.993Z,64.15
2017-12-02T07:35:46.407Z,60.88
2017-12-02T07:38:14.000Z,67.05
2017-12-02T07:40:41.658Z,56.70
2017-12-02T07:43:09.268Z,47.62
2017-12-02T07:45:36.998Z,58.53
2017-12-02T07:48:04.714Z,56.50
2017-12-02T07:50:33.372Z,53.58
2017-12-02T07:53:01.674Z,49.35
2017-12-02T07:55:29.362Z,45.92
2017-12-02T07:57:57.001Z,43.63
2017-12-02T08:00:24.640Z,50.80
2017-12-02T08:02:52.345Z,46.10
2017-12-02T08:05:19.971Z,48.92
2017-12-02T08:07:47.663Z,52.00
2017-12-02T08:10:15.514Z,52.08
2017-12-02T08:12:43.111Z,44.88
2017-12-02T08:15:10.774Z,53.65
2017-12-02T08:17:38.534Z,47.17
2017-12-02T08:20:06.188Z,60.17
2017-12-02T08:22:33.769Z,52.83
2017-12-02T08:25:01.476Z,58.67
2017-12-02T08:27:29.161Z,43.47
2017-12-02T08:29:56.808Z,55.08
2017-12-02T08:32:24.447Z,42.65
2017-12-02T08:34:52.860Z,47.30
2017-12-02T08:37:20.569Z,45.88
2017-12-02T08:39:48.290Z,42.03
2017-12-02T08:42:16.683Z,36.90
2017-12-02T08:44:44.367Z,40.38
2017-12-02T08:47:12.875Z,37.63
2017-12-02T08:49:40.531Z,33.95
2017-12-02T08:52:08.983Z,47.40
2017-12-02T08:54:36.671Z,34.10
2017-12-02T08:57:05.279Z,38.63
2017-12-02T08:59:33.000Z,46.10
2017-12-02T09:02:00.601Z,47.17
2017-12-02T09:04:28.337Z,40.35
2017-12-02T09:06:55.951Z,52.40
2017-12-02T09:09:23.608Z,49.47
2017-12-02T09:11:51.249Z,40.17
2017-12-02T09:14:18.891Z,49.75
2017-12-02T09:16:47.308Z,51.47
2017-12-02T09:19:14.947Z,54.38
2017-12-02T09:21:42.588Z,52.70
2017-12-02T09:24:10.300Z,43.38
2017-12-02T09:26:38.817Z,56.03
2017-12-02T09:29:06.529Z,55.45
2017-12-02T09:31:34.195Z,42.85
2017-12-02T09:34:01.866Z,47.10
2017-12-02T09:36:29.481Z,61.60
2017-12-02T09:38:57.928Z,41.63
2017-12-02T09:41:25.592Z,44.30
2017-12-02T09:43:53.205Z,36.08
2017-12-02T09:46:20.996Z,38.90
2017-12-02T09:48:48.622Z,30.80
2017-12-02T09:51:16.417Z,33.63
2017-12-02T09:53:44.121Z,35.95
2017-12-02T09:56:11.922Z,38.75
2017-12-02T09:58:39.566Z,41.65
2017-12-02T10:01:09.023Z,44.35
2017-12-02T10:03:36.827Z,38.00
2017-12-02T10:06:04.466Z,38.70
2017-12-02T10:08:32.156Z,35.55
2017-12-02T10:10:59.791Z,42.47
2017-12-02T10:13:27.492Z,37.33
2017-12-02T10:15:55.142Z,30.62
2017-12-02T10:18:23.634Z,36.85
2017-12-02T10:20:51.370Z,32.03
2017-12-02T10:23:19.058Z,28.10
2017-12-02T10:25:47.503Z,28.23
2017-12-02T10:28:15.196Z,34.80
2017-12-02T10:30:43.645Z,36.20
2017-12-02T10:33:11.327Z,33.45
2017-12-02T10:35:39.985Z,31.92
2017-12-02T10:38:07.600Z,31.87
2017-12-02T10:40:35.232Z,27.55
2017-12-02T10:43:02.888Z,29.75
2017-12-02T10:45:31.810Z,31.60
2017-12-02T10:48:00.281Z,31.50
2017-12-02T10:50:27.994Z,36.55
2017-12-02T10:52:55.650Z,33.63
2017-12-02T10:55:23.270Z,26.60
2017-12-02T10:57:51.003Z,41.15
2017-12-02T11:00:18.756Z,33.40
2017-12-02T11:02:46.429Z,35.03
2017-12-02T11:05:14.085Z,35.35
2017-12-02T11:07:41.744Z,33.90
2017-12-02T11:10:09.531Z,40.03
2017-12-02T11:12:37.181Z,37.28
2017-12-02T11:15:04.833Z,29.48
2017-12-02T11:17:33.209Z,32.83
2017-12-02T11:20:00.883Z,28.75
2017-12-02T11:22:28.717Z,32.33
2017-12-02T11:24:56.377Z,30.27
2017-12-02T11:27:24.061Z,30.25
2017-12-02T11:29:51.725Z,25.98
2017-12-02T11:32:19.358Z,27.00
2017-12-02T11:34:46.978Z,32.35
2017-12-02T11:37:15.383Z,28.17
2017-12-02T11:39:42.996Z,29.70
2017-12-02T11:42:10.643Z,36.83
2017-12-02T11:44:38.307Z,37.85
2017-12-02T11:47:05.942Z,44.30
2017-12-02T11:49:33.627Z,29.58
2017-12-02T11:52:01.291Z,37.03
2017-12-02T11:54:28.960Z,29.48
2017-12-02T11:56:56.641Z,28.48
2017-12-02T11:59:24.306Z,37.22
2017-12-02T12:01:52.894Z,28.87
2017-12-02T12:04:21.359Z,28.62
2017-12-02T12:06:49.077Z,33.45
2017-12-02T12:09:16.716Z,35.30
2017-12-02T12:11:44.331Z,31.87
2017-12-02T12:14:12.022Z,37.63
2017-12-02T12:16:40.407Z,38.00
2017-12-02T12:19:08.768Z,40.17
2017-12-02T12:21:36.472Z,29.73
2017-12-02T12:24:04.078Z,34.03
2017-12-02T12:26:31.712Z,37.67
2017-12-02T12:28:59.329Z,34.78
2017-12-02T12:31:27.743Z,36.85
2017-12-02T12:33:55.385Z,41.70
2017-12-02T12:36:23.072Z,40.28
2017-12-02T12:38:50.691Z,44.25
2017-12-02T12:41:19.100Z,46.42
2017-12-02T12:43:46.723Z,45.05
2017-12-02T12:46:14.332Z,45.55
2017-12-02T12:48:43.828Z,34.42
2017-12-02T12:51:11.421Z,42.62
2017-12-02T12:53:39.120Z,43.25
2017-12-02T12:56:07.849Z,35.00
2017-12-02T12:58:35.519Z,32.97
2017-12-02T13:01:03.157Z,31.80
2017-12-02T13:03:30.792Z,33.15
2017-12-02T13:05:59.186Z,32.67
2017-12-02T13:08:26.923Z,35.08
2017-12-02T13:10:54.612Z,33.80
2017-12-02T13:13:22.333Z,31.73
2017-12-02T13:15:49.968Z,39.45
2017-12-02T13:18:17.616Z,34.55
2017-12-02T13:20:45.234Z,34.20
2017-12-02T13:23:12.838Z,30.80
2017-12-02T13:25:40.546Z,34.90
2017-12-02T13:28:08.164Z,34.83
2017-12-02T13:30:35.804Z,34.50
2017-12-02T13:33:03.447Z,39.95
2017-12-02T13:35:31.077Z,29.60
2017-12-02T13:37:58.740Z,36.28
2017-12-02T13:40:26.446Z,33.47
2017-12-02T13:42:54.890Z,34.80
2017-12-02T13:45:22.610Z,37.33
2017-12-02T13:47:50.263Z,42.17
2017-12-02T13:50:17.873Z,38.13
2017-12-02T13:52:45.610Z,34.22
2017-12-02T13:55:14.498Z,42.05
2017-12-02T13:57:42.227Z,43.90
2017-12-02T14:00:09.924Z,36.08
2017-12-02T14:02:37.682Z,35.33
2017-12-02T14:05:06.857Z,33.80
2017-12-02T14:07:34.655Z,37.10
2017-12-02T14:10:02.492Z,31.33
2017-12-02T14:12:30.218Z,32.92
2017-12-02T14:14:57.858Z,43.38
2017-12-02T14:17:25.594Z,55.05
2017-12-02T14:19:54.132Z,42.58
2017-12-02T14:22:21.817Z,37.60
2017-12-02T14:24:50.390Z,36.78
2017-12-02T14:27:18.053Z,34.55
2017-12-02T14:29:45.675Z,38.80
2017-12-02T14:32:13.708Z,35.65
2017-12-02T14:34:42.669Z,33.78
2017-12-02T14:37:10.439Z,27.33
2017-12-02T14:39:38.762Z,33.90
2017-12-02T14:42:06.447Z,30.65
2017-12-02T14:44:34.318Z,35.70
2017-12-02T14:47:02.787Z,33.10
2017-12-02T14:49:33.520Z,32.53
2017-12-02T14:52:01.161Z,34.13
2017-12-02T14:54:29.667Z,34.40
2017-12-02T14:56:57.340Z,37.53
2017-12-02T14:59:24.989Z,38.28
2017-12-02T15:01:52.628Z,37.35
2017-12-02T15:04:20.271Z,31.33
2017-12-02T15:06:47.951Z,37.08
2017-12-02T15:09:15.610Z,30.90
2017-12-02T15:11:43.252Z,34.95
2017-12-02T15:14:11.037Z,40.40
2017-12-02T15:16:38.805Z,39.10
2017-12-02T15:19:06.448Z,42.83
2017-12-02T15:21:34.673Z,41.30
2017-12-02T15:24:03.052Z,33.25
2017-12-02T15:26:30.661Z,37.85
2017-12-02T15:28:58.411Z,37.95
2017-12-02T15:31:26.018Z,67.68
2017-12-02T15:33:54.708Z,75.53
2017-12-02T15:36:22.479Z,132.55
2017-12-02T15:38:50.808Z,48.70
2017-12-02T15:41:18.495Z,126.87
2017-12-02T15:43:46.996Z,165.23
2017-12-02T15:46:15.409Z,115.25
2017-12-02T15:48:43.279Z,128.23
2017-12-02T15:51:11.730Z,57.85
2017-12-02T15:53:39.384Z,84.20
2017-12-02T15:56:07.058Z,156.37
2017-12-02T15:58:34.679Z,188.68
2017-12-02T16:01:02.497Z,242.87
2017-12-02T16:03:30.193Z,69.32
2017-12-02T16:05:58.149Z,64.60
2017-12-02T16:08:25.838Z,78.10
2017-12-02T16:10:53.719Z,79.82
2017-12-02T16:13:22.119Z,148.68
2017-12-02T16:15:49.816Z,67.43
2017-12-02T16:18:17.602Z,68.90
2017-12-02T16:20:45.212Z,86.70
2017-12-02T16:23:12.888Z,78.97
2017-12-02T16:25:40.494Z,101.40
2017-12-02T16:28:08.171Z,76.47
2017-12-02T16:30:36.577Z,76.57
2017-12-02T16:33:04.279Z,75.87
2017-12-02T16:35:31.931Z,80.07
2017-12-02T16:38:00.331Z,138.10
2017-12-02T16:40:28.037Z,80.07
2017-12-02T16:42:55.870Z,73.00
2017-12-02T16:45:23.587Z,88.07
2017-12-02T16:47:51.307Z,69.15
2017-12-02T16:50:19.003Z,69.15
2017-12-02T16:52:46.694Z,59.20
2017-12-02T16:55:14.312Z,54.25
2017-12-02T16:57:42.031Z,68.30
2017-12-02T17:00:09.687Z,77.03
2017-12-02T17:02:37.374Z,74.30
2017-12-02T17:05:05.119Z,73.18
2017-12-02T17:07:33.551Z,68.10
2017-12-02T17:10:01.189Z,80.78
2017-12-02T17:12:29.663Z,81.35
2017-12-02T17:14:57.344Z,87.57
2017-12-02T17:17:25.003Z,92.25
2017-12-02T17:19:53.415Z,97.47
2017-12-02T17:22:21.088Z,95.72
2017-12-02T17:24:49.403Z,88.25
2017-12-02T17:27:17.027Z,84.18
2017-12-02T17:29:44.654Z,107.55
2017-12-02T17:32:12.354Z,93.32
2017-12-02T17:34:40.774Z,70.15
2017-12-02T17:37:08.445Z,99.80
2017-12-02T17:39:36.159Z,90.28
2017-12-02T17:42:03.871Z,85.90
2017-12-02T17:44:31.587Z,77.93
2017-12-02T17:46:59.335Z,93.03
2017-12-02T17:49:26.956Z,88.78
2017-12-02T17:51:54.630Z,75.55
2017-12-02T17:54:22.334Z,88.20
2017-12-02T17:56:49.964Z,85.05
2017-12-02T17:59:17.689Z,74.55
2017-12-02T18:01:45.337Z,64.93
2017-12-02T18:04:13.047Z,78.93
2017-12-02T18:06:41.378Z,75.85
2017-12-02T18:09:08.979Z,74.03
2017-12-02T18:11:37.387Z,89.90
2017-12-02T18:14:05.025Z,94.87
2017-12-02T18:16:32.715Z,90.70
2017-12-02T18:19:00.361Z,76.30
2017-12-02T18:21:27.953Z,89.40
2017-12-02T18:23:55.617Z,91.10
2017-12-02T18:26:23.231Z,65.22
2017-12-02T18:28:50.835Z,80.97
2017-12-02T18:31:20.647Z,70.80
2017-12-02T18:33:48.382Z,87.12
2017-12-02T18:36:16.161Z,84.05
2017-12-02T18:38:43.726Z,78.70
2017-12-02T18:41:11.410Z,73.82
2017-12-02T18:43:39.086Z,77.47
2017-12-02T18:46:06.917Z,81.95
2017-12-02T18:48:34.544Z,79.40
2017-12-02T18:51:02.251Z,88.05
2017-12-02T18:53:29.839Z,92.78
2017-12-02T18:55:57.507Z,85.75
2017-12-02T18:58:25.993Z,101.93
2017-12-02T19:00:53.640Z,90.22
2017-12-02T19:03:21.248Z,71.10
2017-12-02T19:05:49.693Z,94.97
2017-12-02T19:08:17.320Z,86.87
2017-12-02T19:10:45.035Z,79.62
2017-12-02T19:13:12.717Z,76.00
2017-12-02T19:15:40.345Z,63.00
2017-12-02T19:18:08.749Z,67.68
2017-12-02T19:20:36.421Z,65.97
2017-12-02T19:23:04.109Z,64.32
2017-12-02T19:25:31.868Z,75.05
2017-12-02T19:27:59.468Z,86.37
2017-12-02T19:30:27.144Z,81.12
2017-12-02T19:32:55.599Z,73.07
2017-12-02T19:35:24.013Z,81.47
2017-12-02T19:37:51.605Z,82.22
2017-12-02T19:40:19.259Z,61.33
2017-12-02T19:42:46.952Z,78.40
2017-12-02T19:45:14.635Z,69.03
2017-12-02T19:47:43.033Z,87.57
2017-12-02T19:50:11.151Z,65.93
2017-12-02T19:52:39.287Z,74.82
2017-12-02T19:55:07.064Z,78.30
2017-12-02T19:57:34.697Z,56.50
2017-12-02T20:00:02.396Z,59.90
2017-12-02T20:02:30.071Z,78.47
2017-12-02T20:04:57.694Z,75.53
2017-12-02T20:07:25.291Z,81.07
2017-12-02T20:09:52.934Z,81.45
2017-12-02T20:12:21.501Z,71.57
2017-12-02T20:14:49.097Z,63.03
2017-12-02T20:17:17.346Z,68.90
2017-12-02T20:19:45.025Z,59.03
2017-12-02T20:22:12.796Z,64.82
2017-12-02T20:24:40.454Z,65.90
2017-12-02T20:27:08.099Z,63.40
2017-12-02T20:29:35.904Z,69.70
2017-12-02T20:32:03.480Z,72.18
2017-12-02T20:34:31.109Z,54.05
2017-12-02T20:36:58.683Z,59.22
2017-12-02T20:39:26.415Z,70.15
2017-12-02T20:41:54.094Z,85.68
2017-12-02T20:44:21.778Z,151.00
2017-12-02T20:46:49.418Z,73.75
2017-12-02T20:49:17.042Z,73.22
2017-12-02T20:51:45.390Z,75.85
2017-12-02T20:54:13.002Z,49.60
2017-12-02T20:56:40.611Z,62.38
2017-12-02T20:59:08.227Z,64.07
2017-12-02T21:01:36.836Z,66.30
2017-12-02T21:04:04.466Z,60.78
2017-12-02T21:06:32.055Z,68.22
2017-12-02T21:08:59.695Z,68.80
2017-12-02T21:11:27.285Z,70.93
2017-12-02T21:13:54.917Z,63.78
2017-12-02T21:16:22.538Z,71.97
2017-12-02T21:18:50.908Z,73.40
2017-12-02T21:21:18.547Z,72.45
2017-12-02T21:23:46.172Z,74.60
2017-12-02T21:26:13.826Z,70.37
2017-12-02T21:28:41.396Z,62.38
2017-12-02T21:31:09.051Z,60.10
2017-12-02T21:33:36.701Z,69.82
2017-12-02T21:36:04.475Z,75.45
2017-12-02T21:38:32.140Z,73.97
2017-12-02T21:40:59.795Z,76.22
2017-12-02T21:43:27.509Z,85.95
2017-12-02T21:45:55.168Z,63.35
2017-12-02T21:48:22.771Z,63.60
2017-12-02T21:50:51.201Z,69.93
2017-12-02T21:53:18.909Z,61.22
2017-12-02T21:55:46.538Z,64.78
2017-12-02T21:58:14.154Z,69.18
2017-12-02T22:00:41.821Z,80.65
2017-12-02T22:03:09.460Z,78.93
2017-12-02T22:05:37.041Z,60.05
2017-12-02T22:08:04.852Z,66.82
2017-12-02T22:10:32.565Z,60.45
2017-12-02T22:13:00.156Z,77.35
2017-12-02T22:15:27.756Z,69.43
2017-12-02T22:17:55.456Z,63.55
2017-12-02T22:20:23.039Z,68.80
2017-12-02T22:22:50.843Z,58.63
2017-12-02T22:25:18.444Z,56.80
2017-12-02T22:27:46.837Z,66.62
2017-12-02T22:30:14.483Z,67.75
2017-12-02T22:32:42.055Z,80.35
2017-12-02T22:35:09.765Z,70.75
2017-12-02T22:37:37.636Z,67.90
2017-12-02T22:40:05.298Z,79.15
2017-12-02T22:42:33.037Z,69.95
2017-12-02T22:45:01.495Z,80.47
2017-12-02T22:47:29.171Z,83.00
2017-12-02T22:49:57.584Z,87.70
2017-12-02T22:52:25.217Z,79.22
2017-12-02T22:54:53.642Z,82.43
2017-12-02T22:57:21.309Z,101.32
2017-12-02T22:59:48.873Z,70.85
2017-12-02T23:02:16.941Z,85.50
2017-12-02T23:04:44.599Z,56.83
2017-12-02T23:07:12.200Z,64.53
2017-12-02T23:09:40.653Z,89.03
2017-12-02T23:12:08.309Z,80.05
2017-12-02T23:14:35.973Z,79.43
2017-12-02T23:17:03.612Z,81.70
2017-12-02T23:19:31.233Z,73.03
2017-12-02T23:21:58.882Z,84.80
2017-12-02T23:24:27.247Z,78.50
2017-12-02T23:26:54.903Z,69.72
2017-12-02T23:29:22.549Z,68.95
2017-12-02T23:31:50.206Z,74.07
2017-12-02T23:34:17.784Z,67.72
2017-12-02T23:36:45.419Z,76.47
2017-12-02T23:39:13.201Z,68.85
2017-12-02T23:41:40.776Z,59.08
2017-12-02T23:44:08.440Z,62.17
2017-12-02T23:46:36.080Z,78.28
2017-12-02T23:49:04.616Z,66.82
2017-12-02T23:51:33.057Z,62.25
2017-12-02T23:54:00.676Z,75.50
2017-12-02T23:56:28.269Z,68.85
2017-12-02T23:58:55.953Z,64.53
